createdAt,value
2018-01-01T00:00:24.401Z,0
2018-01-01T00:01:34.605Z,0
2018-01-01T00:02:44.764Z,0
2018-01-01T00:03:54.937Z,0
2018-01-01T00:05:05.134Z,0
2018-01-01T00:06:15.360Z,0
2018-01-01T00:07:25.336Z,0
2018-01-01T00:08:35.499Z,0
2018-01-01T00:09:45.661Z,0
2018-01-01T00:10:55.930Z,0
2018-01-01T00:12:06.101Z,0
2018-01-01T00:13:15.900Z,0
2018-01-01T00:14:26.065Z,0
2018-01-01T00:15:36.294Z,0
2018-01-01T00:16:46.447Z,0
2018-01-01T00:17:56.614Z,0
2018-01-01T00:19:06.880Z,0
2018-01-01T00:20:17.079Z,0
2018-01-01T00:21:26.925Z,0
2018-01-01T00:22:37.073Z,0
2018-01-01T00:23:46.962Z,0
2018-01-01T00:24:57.132Z,0
2018-01-01T00:26:07.295Z,0
2018-01-01T00:27:17.439Z,0
2018-01-01T00:28:27.641Z,0
2018-01-01T00:29:37.906Z,0
2018-01-01T00:30:48.049Z,0
2018-01-01T00:31:58.235Z,0
2018-01-01T00:33:08.415Z,0
2018-01-01T00:34:18.601Z,0
2018-01-01T00:35:28.831Z,0
2018-01-01T00:36:38.991Z,0
2018-01-01T00:37:50.111Z,0
2018-01-01T00:39:00.254Z,0
2018-01-01T00:40:10.086Z,0
2018-01-01T00:41:20.255Z,0
2018-01-01T00:42:30.445Z,0
2018-01-01T00:43:40.623Z,0
2018-01-01T00:44:50.824Z,0
2018-01-01T00:46:01.062Z,0
2018-01-01T00:47:11.237Z,0
2018-01-01T00:48:21.139Z,0
2018-01-01T00:49:31.333Z,0
2018-01-01T00:50:41.515Z,0
2018-01-01T00:51:51.760Z,0
2018-01-01T00:53:01.968Z,0
2018-01-01T00:54:12.116Z,0
2018-01-01T00:55:22.341Z,0
2018-01-01T00:56:32.575Z,0
2018-01-01T00:57:42.744Z,0
2018-01-01T00:58:53.046Z,0
2018-01-01T01:00:03.896Z,0
2018-01-01T01:01:14.052Z,0
2018-01-01T01:02:24.188Z,0
2018-01-01T01:03:34.405Z,0
2018-01-01T01:04:44.570Z,0
2018-01-01T01:05:54.490Z,0
2018-01-01T01:07:04.653Z,0
2018-01-01T01:08:14.838Z,0
2018-01-01T01:09:25.038Z,0
2018-01-01T01:10:35.183Z,0
2018-01-01T01:11:45.346Z,0
2018-01-01T01:12:55.534Z,0
2018-01-01T01:14:05.702Z,0
2018-01-01T01:15:15.878Z,0
2018-01-01T01:16:26.194Z,0
2018-01-01T01:17:36.348Z,0
2018-01-01T01:18:46.506Z,0
2018-01-01T01:19:56.703Z,0
2018-01-01T01:21:06.839Z,0
2018-01-01T01:22:16.992Z,0
2018-01-01T01:23:27.160Z,0
2018-01-01T01:24:37.056Z,0
2018-01-01T01:25:47.212Z,0
2018-01-01T01:26:57.370Z,0
2018-01-01T01:28:07.577Z,0
2018-01-01T01:29:17.842Z,0
2018-01-01T01:30:28.018Z,0
2018-01-01T01:31:38.301Z,0
2018-01-01T01:32:48.521Z,0
2018-01-01T01:33:58.720Z,0
2018-01-01T01:35:08.878Z,0
2018-01-01T01:36:19.040Z,0
2018-01-01T01:37:29.208Z,0
2018-01-01T01:38:39.478Z,0
2018-01-01T01:39:49.756Z,0
2018-01-01T01:40:59.939Z,0
2018-01-01T01:42:10.347Z,0
2018-01-01T01:43:20.596Z,0
2018-01-01T01:44:30.746Z,0
2018-01-01T01:45:40.915Z,0
2018-01-01T01:46:51.085Z,0
2018-01-01T01:48:01.306Z,0
2018-01-01T01:49:11.536Z,0
2018-01-01T01:50:21.756Z,0
2018-01-01T01:51:31.916Z,0
2018-01-01T01:52:41.974Z,0
2018-01-01T01:53:51.863Z,0
2018-01-01T01:55:01.752Z,0
2018-01-01T01:56:11.923Z,0
2018-01-01T01:57:22.112Z,0
2018-01-01T01:58:32.392Z,0
2018-01-01T01:59:42.583Z,0
2018-01-01T02:00:52.724Z,0
2018-01-01T02:02:03.037Z,0
2018-01-01T02:03:13.195Z,0
2018-01-01T02:04:23.340Z,0
2018-01-01T02:05:33.492Z,0
2018-01-01T02:06:43.645Z,0
2018-01-01T02:07:53.801Z,0
2018-01-01T02:09:03.793Z,0
2018-01-01T02:10:13.990Z,0
2018-01-01T02:11:24.163Z,0
2018-01-01T02:12:34.293Z,0
2018-01-01T02:13:44.439Z,0
2018-01-01T02:14:54.578Z,0
2018-01-01T02:16:04.720Z,0
2018-01-01T02:17:14.911Z,0
2018-01-01T02:18:25.161Z,0
2018-01-01T02:19:35.388Z,0
2018-01-01T02:20:45.525Z,0
2018-01-01T02:21:55.779Z,0
2018-01-01T02:23:06.033Z,0
2018-01-01T02:24:17.222Z,0
2018-01-01T02:25:27.419Z,0
2018-01-01T02:26:37.618Z,0
2018-01-01T02:27:47.793Z,0
2018-01-01T02:28:57.936Z,0
2018-01-01T02:30:08.077Z,0
2018-01-01T02:31:18.038Z,0
2018-01-01T02:32:28.178Z,0
2018-01-01T02:33:38.317Z,0
2018-01-01T02:34:48.490Z,0
2018-01-01T02:35:58.640Z,0
2018-01-01T02:37:08.799Z,0
2018-01-01T02:38:19.029Z,0
2018-01-01T02:39:29.212Z,0
2018-01-01T02:40:39.414Z,0
2018-01-01T02:41:49.554Z,0
2018-01-01T02:42:59.732Z,0
2018-01-01T02:44:09.612Z,0
2018-01-01T02:45:19.837Z,0
2018-01-01T02:46:29.967Z,0
2018-01-01T02:47:40.127Z,0
2018-01-01T02:48:50.019Z,0
2018-01-01T02:50:00.170Z,0
2018-01-01T02:51:10.359Z,0
2018-01-01T02:52:20.660Z,0
2018-01-01T02:53:31.031Z,0
2018-01-01T02:54:41.195Z,0
2018-01-01T02:55:51.351Z,0
2018-01-01T02:57:01.540Z,0
2018-01-01T02:58:11.673Z,0
2018-01-01T02:59:22.088Z,0
2018-01-01T03:00:32.221Z,0
2018-01-01T03:01:42.115Z,0
2018-01-01T03:02:52.279Z,0
2018-01-01T03:04:02.416Z,0
2018-01-01T03:05:12.660Z,0
2018-01-01T03:06:22.840Z,0
2018-01-01T03:07:33.009Z,0
2018-01-01T03:08:43.213Z,0
2018-01-01T03:09:53.432Z,0
2018-01-01T03:11:03.581Z,0
2018-01-01T03:12:13.856Z,0
2018-01-01T03:13:23.997Z,0
2018-01-01T03:14:34.138Z,0
2018-01-01T03:15:44.288Z,0
2018-01-01T03:16:54.424Z,0
2018-01-01T03:18:04.594Z,0
2018-01-01T03:19:15.784Z,0
2018-01-01T03:20:26.895Z,0
2018-01-01T03:21:37.056Z,0
2018-01-01T03:22:47.063Z,0
2018-01-01T03:23:57.212Z,0
2018-01-01T03:25:07.382Z,0
2018-01-01T03:26:17.552Z,0
2018-01-01T03:27:27.684Z,0
2018-01-01T03:28:37.923Z,0
2018-01-01T03:29:49.036Z,0
2018-01-01T03:30:59.242Z,0
2018-01-01T03:32:09.409Z,0
2018-01-01T03:33:19.589Z,0
2018-01-01T03:34:29.742Z,0
2018-01-01T03:35:39.909Z,0
2018-01-01T03:36:50.038Z,0
2018-01-01T03:38:00.270Z,0
2018-01-01T03:39:10.477Z,0
2018-01-01T03:40:20.723Z,0
2018-01-01T03:41:30.864Z,0
2018-01-01T03:42:41.092Z,0
2018-01-01T03:43:51.326Z,0
2018-01-01T03:45:01.554Z,0
2018-01-01T03:46:11.703Z,0
2018-01-01T03:47:21.593Z,0
2018-01-01T03:48:31.777Z,0
2018-01-01T03:49:41.978Z,0
2018-01-01T03:50:52.215Z,0
2018-01-01T03:52:02.359Z,0
2018-01-01T03:53:12.488Z,0
2018-01-01T03:54:22.648Z,0
2018-01-01T03:55:32.788Z,0
2018-01-01T03:56:42.955Z,0
2018-01-01T03:57:53.089Z,0
2018-01-01T03:59:03.285Z,0
2018-01-01T04:00:13.418Z,0
2018-01-01T04:01:23.549Z,0
2018-01-01T04:02:33.682Z,0
2018-01-01T04:03:43.816Z,0
2018-01-01T04:04:53.942Z,0
2018-01-01T04:06:04.119Z,0
2018-01-01T04:07:14.269Z,0
2018-01-01T04:08:24.397Z,0
2018-01-01T04:09:34.574Z,0
2018-01-01T04:10:44.706Z,0
2018-01-01T04:11:54.861Z,0
2018-01-01T04:13:05.014Z,0
2018-01-01T04:14:14.902Z,0
2018-01-01T04:15:25.039Z,0
2018-01-01T04:16:35.180Z,0
2018-01-01T04:17:45.345Z,0
2018-01-01T04:18:55.566Z,0
2018-01-01T04:20:05.741Z,0
2018-01-01T04:21:15.969Z,0
2018-01-01T04:22:26.158Z,0
2018-01-01T04:23:36.409Z,0
2018-01-01T04:24:46.548Z,0
2018-01-01T04:25:56.676Z,0
2018-01-01T04:27:06.814Z,0
2018-01-01T04:28:17.028Z,0
2018-01-01T04:29:27.247Z,0
2018-01-01T04:30:37.437Z,0
2018-01-01T04:31:47.567Z,0
2018-01-01T04:32:57.750Z,0
2018-01-01T04:34:08.005Z,0
2018-01-01T04:35:18.242Z,0
2018-01-01T04:36:28.465Z,0
2018-01-01T04:37:38.668Z,0
2018-01-01T04:38:48.969Z,0
2018-01-01T04:39:59.146Z,0
2018-01-01T04:41:09.333Z,0
2018-01-01T04:42:19.558Z,0
2018-01-01T04:43:29.696Z,0
2018-01-01T04:44:39.928Z,0
2018-01-01T04:45:50.148Z,0
2018-01-01T04:47:00.303Z,0
2018-01-01T04:48:10.484Z,0
2018-01-01T04:49:20.646Z,0
2018-01-01T04:50:30.782Z,0
2018-01-01T04:51:40.915Z,0
2018-01-01T04:52:51.066Z,0
2018-01-01T04:54:01.226Z,0
2018-01-01T04:55:11.358Z,0
2018-01-01T04:56:21.332Z,0
2018-01-01T04:57:31.052Z,0
2018-01-01T04:58:41.228Z,0
2018-01-01T04:59:51.110Z,0
2018-01-01T05:01:01.289Z,0
2018-01-01T05:02:11.422Z,0
2018-01-01T05:03:21.600Z,0
2018-01-01T05:04:31.781Z,0
2018-01-01T05:05:41.961Z,0
2018-01-01T05:06:52.188Z,0
2018-01-01T05:08:01.947Z,0
2018-01-01T05:09:12.107Z,0
2018-01-01T05:10:22.304Z,0
2018-01-01T05:11:32.298Z,0
2018-01-01T05:12:42.427Z,0
2018-01-01T05:13:52.576Z,0
2018-01-01T05:15:02.539Z,0
2018-01-01T05:16:12.694Z,0
2018-01-01T05:17:22.843Z,0
2018-01-01T05:18:33.021Z,0
2018-01-01T05:19:42.936Z,0
2018-01-01T05:20:53.057Z,0
2018-01-01T05:22:02.935Z,0
2018-01-01T05:23:13.068Z,0
2018-01-01T05:24:23.316Z,0
2018-01-01T05:25:33.463Z,0
2018-01-01T05:26:43.666Z,0
2018-01-01T05:27:53.545Z,0
2018-01-01T05:29:03.672Z,0
2018-01-01T05:30:13.793Z,0
2018-01-01T05:31:23.932Z,0
2018-01-01T05:32:34.094Z,0
2018-01-01T05:33:44.260Z,0
2018-01-01T05:34:54.440Z,0
2018-01-01T05:36:04.571Z,0
2018-01-01T05:37:14.752Z,0
2018-01-01T05:38:24.901Z,0
2018-01-01T05:39:35.135Z,0
2018-01-01T05:40:45.285Z,0
2018-01-01T05:41:55.482Z,0
2018-01-01T05:43:05.704Z,0
2018-01-01T05:44:15.970Z,0
2018-01-01T05:45:26.115Z,0
2018-01-01T05:46:36.350Z,0
2018-01-01T05:47:46.471Z,0
2018-01-01T05:48:56.671Z,0
2018-01-01T05:50:06.789Z,0
2018-01-01T05:51:16.917Z,0
2018-01-01T05:52:27.119Z,0
2018-01-01T05:53:37.267Z,0
2018-01-01T05:54:47.141Z,0
2018-01-01T05:55:57.315Z,0
2018-01-01T05:57:07.526Z,0
2018-01-01T05:58:17.702Z,0
2018-01-01T05:59:27.849Z,0
2018-01-01T06:00:37.734Z,0
2018-01-01T06:01:47.882Z,0
2018-01-01T06:02:58.046Z,0
2018-01-01T06:04:08.229Z,0
2018-01-01T06:05:18.524Z,0
2018-01-01T06:06:28.765Z,0
2018-01-01T06:07:38.904Z,0
2018-01-01T06:08:49.095Z,0
2018-01-01T06:09:59.275Z,0
2018-01-01T06:11:09.582Z,0
2018-01-01T06:12:19.829Z,0
2018-01-01T06:13:29.985Z,0
2018-01-01T06:14:40.122Z,0
2018-01-01T06:15:50.262Z,0
2018-01-01T06:17:00.384Z,0
2018-01-01T06:18:10.516Z,0
2018-01-01T06:19:20.644Z,0
2018-01-01T06:20:30.800Z,0
2018-01-01T06:21:40.935Z,0
2018-01-01T06:22:51.110Z,0
2018-01-01T06:24:01.112Z,0
2018-01-01T06:25:11.372Z,0
2018-01-01T06:26:21.502Z,0
2018-01-01T06:27:31.699Z,0
2018-01-01T06:28:41.934Z,0
2018-01-01T06:29:52.148Z,0
2018-01-01T06:31:02.356Z,0
2018-01-01T06:32:12.593Z,0
2018-01-01T06:33:22.747Z,0
2018-01-01T06:34:33.091Z,0
2018-01-01T06:35:43.248Z,0
2018-01-01T06:36:53.470Z,0
2018-01-01T06:38:03.659Z,0
2018-01-01T06:39:13.535Z,0
2018-01-01T06:40:23.760Z,0
2018-01-01T06:41:33.888Z,0
2018-01-01T06:42:44.076Z,0
2018-01-01T06:43:54.292Z,4
2018-01-01T06:45:05.428Z,4
2018-01-01T06:46:15.545Z,0
2018-01-01T06:47:25.673Z,4
2018-01-01T06:48:35.835Z,4
2018-01-01T06:49:45.989Z,4
2018-01-01T06:50:56.175Z,4
2018-01-01T06:52:06.397Z,8
2018-01-01T06:53:16.638Z,8
2018-01-01T06:54:26.789Z,12
2018-01-01T06:55:36.954Z,12
2018-01-01T06:56:47.134Z,16
2018-01-01T06:57:57.283Z,16
2018-01-01T06:59:07.429Z,20
2018-01-01T07:00:17.554Z,24
2018-01-01T07:01:27.684Z,28
2018-01-01T07:02:37.869Z,36
2018-01-01T07:03:48.186Z,36
2018-01-01T07:04:58.311Z,44
2018-01-01T07:06:08.569Z,52
2018-01-01T07:07:18.720Z,60
2018-01-01T07:08:28.909Z,68
2018-01-01T07:09:39.065Z,80
2018-01-01T07:10:49.189Z,88
2018-01-01T07:11:59.314Z,100
2018-01-01T07:13:09.473Z,112
2018-01-01T07:14:19.637Z,120
2018-01-01T07:15:29.876Z,136
2018-01-01T07:16:40.058Z,144
2018-01-01T07:17:50.208Z,160
2018-01-01T07:19:00.381Z,180
2018-01-01T07:20:10.602Z,192
2018-01-01T07:21:20.752Z,200
2018-01-01T07:22:30.889Z,208
2018-01-01T07:23:41.028Z,224
2018-01-01T07:24:51.176Z,244
2018-01-01T07:26:01.312Z,244
2018-01-01T07:27:11.217Z,236
2018-01-01T07:28:21.370Z,252
2018-01-01T07:29:31.555Z,276
2018-01-01T07:30:41.750Z,312
2018-01-01T07:31:51.975Z,348
2018-01-01T07:33:02.149Z,372
2018-01-01T07:34:12.296Z,404
2018-01-01T07:35:22.453Z,436
2018-01-01T07:36:32.589Z,464
2018-01-01T07:37:42.755Z,520
2018-01-01T07:38:52.880Z,576
2018-01-01T07:40:03.017Z,604
2018-01-01T07:41:12.881Z,640
2018-01-01T07:42:23.040Z,676
2018-01-01T07:43:33.212Z,712
2018-01-01T07:44:43.460Z,716
2018-01-01T07:45:53.423Z,732
2018-01-01T07:47:03.589Z,764
2018-01-01T07:48:13.735Z,760
2018-01-01T07:49:23.912Z,748
2018-01-01T07:50:33.790Z,780
2018-01-01T07:51:43.718Z,848
2018-01-01T07:52:53.930Z,940
2018-01-01T07:54:04.074Z,980
2018-01-01T07:55:14.211Z,960
2018-01-01T07:56:24.347Z,960
2018-01-01T07:57:34.472Z,1028
2018-01-01T07:58:44.622Z,1220
2018-01-01T07:59:54.882Z,1212
2018-01-01T08:01:05.021Z,1208
2018-01-01T08:02:15.192Z,1148
2018-01-01T08:03:25.337Z,1284
2018-01-01T08:04:35.456Z,1300
2018-01-01T08:05:45.606Z,1388
2018-01-01T08:06:55.494Z,1420
2018-01-01T08:08:05.640Z,1456
2018-01-01T08:09:15.777Z,1448
2018-01-01T08:10:25.916Z,1448
2018-01-01T08:11:36.062Z,1488
2018-01-01T08:12:46.288Z,1556
2018-01-01T08:13:56.434Z,1520
2018-01-01T08:15:06.580Z,1508
2018-01-01T08:16:16.702Z,1512
2018-01-01T08:17:26.831Z,1588
2018-01-01T08:18:37.072Z,1616
2018-01-01T08:19:47.268Z,1496
2018-01-01T08:20:57.481Z,1460
2018-01-01T08:22:07.650Z,1416
2018-01-01T08:23:17.862Z,1464
2018-01-01T08:24:27.771Z,1520
2018-01-01T08:25:37.920Z,1632
2018-01-01T08:26:48.053Z,1712
2018-01-01T08:27:58.303Z,1756
2018-01-01T08:29:08.581Z,1768
2018-01-01T08:30:18.743Z,1772
2018-01-01T08:31:28.914Z,1796
2018-01-01T08:32:39.093Z,1808
2018-01-01T08:33:49.257Z,1916
2018-01-01T08:34:59.411Z,2340
2018-01-01T08:36:09.548Z,3204
2018-01-01T08:37:19.675Z,3280
2018-01-01T08:38:29.890Z,3788
2018-01-01T08:39:40.027Z,3204
2018-01-01T08:40:50.227Z,2540
2018-01-01T08:42:00.423Z,2168
2018-01-01T08:43:10.636Z,2168
2018-01-01T08:44:21.851Z,2376
2018-01-01T08:45:32.975Z,2216
2018-01-01T08:46:43.139Z,2124
2018-01-01T08:47:53.261Z,2340
2018-01-01T08:49:03.395Z,3388
2018-01-01T08:50:13.547Z,4308
2018-01-01T08:51:23.329Z,4424
2018-01-01T08:52:33.476Z,4452
2018-01-01T08:53:43.651Z,3896
2018-01-01T08:54:53.564Z,3228
2018-01-01T08:56:03.715Z,3028
2018-01-01T08:57:13.867Z,2560
2018-01-01T08:58:24.087Z,2656
2018-01-01T08:59:34.359Z,3188
2018-01-01T09:00:44.228Z,3224
2018-01-01T09:01:54.362Z,3240
2018-01-01T09:03:04.258Z,3264
2018-01-01T09:04:14.402Z,3284
2018-01-01T09:05:24.583Z,3316
2018-01-01T09:06:34.715Z,3300
2018-01-01T09:07:44.862Z,3312
2018-01-01T09:08:54.990Z,3344
2018-01-01T09:10:05.140Z,3392
2018-01-01T09:11:15.283Z,3420
2018-01-01T09:12:26.437Z,3348
2018-01-01T09:13:36.598Z,3444
2018-01-01T09:14:46.771Z,3076
2018-01-01T09:15:56.641Z,3484
2018-01-01T09:17:06.799Z,3524
2018-01-01T09:18:16.568Z,3540
2018-01-01T09:19:26.714Z,3548
2018-01-01T09:20:36.851Z,3552
2018-01-01T09:21:47.045Z,3564
2018-01-01T09:22:57.327Z,3604
2018-01-01T09:24:07.479Z,3660
2018-01-01T09:25:17.661Z,3736
2018-01-01T09:26:27.895Z,3828
2018-01-01T09:27:38.142Z,3904
2018-01-01T09:28:48.305Z,3960
2018-01-01T09:29:58.195Z,4008
2018-01-01T09:31:08.327Z,4008
2018-01-01T09:32:18.464Z,4004
2018-01-01T09:33:28.626Z,4032
2018-01-01T09:34:38.782Z,4044
2018-01-01T09:35:48.925Z,4048
2018-01-01T09:36:59.087Z,4076
2018-01-01T09:38:09.248Z,4124
2018-01-01T09:39:19.419Z,4176
2018-01-01T09:40:30.656Z,4280
2018-01-01T09:41:41.766Z,4492
2018-01-01T09:42:51.576Z,4688
2018-01-01T09:44:01.803Z,4624
2018-01-01T09:45:11.954Z,5248
2018-01-01T09:46:22.201Z,4896
2018-01-01T09:47:32.102Z,4816
2018-01-01T09:48:42.253Z,4740
2018-01-01T09:49:52.453Z,4700
2018-01-01T09:51:02.592Z,5132
2018-01-01T09:52:12.746Z,4964
2018-01-01T09:53:23.016Z,5356
2018-01-01T09:54:33.288Z,4584
2018-01-01T09:55:43.537Z,5344
2018-01-01T09:56:53.680Z,6736
2018-01-01T09:58:03.954Z,4720
2018-01-01T09:59:14.097Z,6004
2018-01-01T10:00:24.333Z,5672
2018-01-01T10:01:34.598Z,5416
2018-01-01T10:02:44.473Z,5768
2018-01-01T10:03:54.657Z,4144
2018-01-01T10:05:04.869Z,6116
2018-01-01T10:06:15.027Z,5888
2018-01-01T10:07:24.667Z,7204
2018-01-01T10:08:34.632Z,9372
2018-01-01T10:09:44.774Z,19552
2018-01-01T10:10:54.549Z,27904
2018-01-01T10:12:04.607Z,27360
2018-01-01T10:13:14.819Z,24416
2018-01-01T10:14:25.129Z,25312
2018-01-01T10:15:35.276Z,27680
2018-01-01T10:16:45.584Z,30528
2018-01-01T10:17:56.494Z,30784
2018-01-01T10:19:06.683Z,31488
2018-01-01T10:20:16.829Z,33600
2018-01-01T10:21:27.010Z,34496
2018-01-01T10:22:37.194Z,31808
2018-01-01T10:23:47.391Z,33152
2018-01-01T10:24:57.313Z,31360
2018-01-01T10:26:07.473Z,32288
2018-01-01T10:27:17.629Z,32448
2018-01-01T10:28:27.794Z,32608
2018-01-01T10:29:38.017Z,32960
2018-01-01T10:30:48.249Z,32448
2018-01-01T10:31:58.454Z,32448
2018-01-01T10:33:08.617Z,33376
2018-01-01T10:34:18.783Z,35744
2018-01-01T10:35:29.233Z,35040
2018-01-01T10:36:39.412Z,34528
2018-01-01T10:37:49.562Z,34208
2018-01-01T10:38:59.795Z,34240
2018-01-01T10:40:10.055Z,33280
2018-01-01T10:41:20.300Z,32544
2018-01-01T10:42:30.468Z,33536
2018-01-01T10:43:40.636Z,33984
2018-01-01T10:44:50.803Z,35232
2018-01-01T10:46:01.068Z,36224
2018-01-01T10:47:11.278Z,34240
2018-01-01T10:48:21.597Z,34752
2018-01-01T10:49:31.809Z,35808
2018-01-01T10:50:42.005Z,32928
2018-01-01T10:51:52.193Z,33184
2018-01-01T10:53:02.376Z,37440
2018-01-01T10:54:12.613Z,33504
2018-01-01T10:55:22.898Z,30016
2018-01-01T10:56:33.072Z,35136
2018-01-01T10:57:42.970Z,33632
2018-01-01T10:58:53.137Z,34944
2018-01-01T11:00:03.336Z,36960
2018-01-01T11:01:13.249Z,30656
2018-01-01T11:02:23.414Z,28544
2018-01-01T11:03:33.576Z,16544
2018-01-01T11:04:43.758Z,30432
2018-01-01T11:05:53.917Z,14432
2018-01-01T11:07:03.495Z,38880
2018-01-01T11:08:13.387Z,36160
2018-01-01T11:09:23.573Z,36192
2018-01-01T11:10:33.929Z,34368
2018-01-01T11:11:44.106Z,34432
2018-01-01T11:12:54.296Z,35872
2018-01-01T11:14:04.475Z,35616
2018-01-01T11:15:14.638Z,35392
2018-01-01T11:16:24.853Z,38592
2018-01-01T11:17:35.056Z,36384
2018-01-01T11:18:45.326Z,36608
2018-01-01T11:19:55.336Z,34944
2018-01-01T11:21:05.496Z,34400
2018-01-01T11:22:15.676Z,36704
2018-01-01T11:23:25.963Z,38048
2018-01-01T11:24:36.125Z,38880
2018-01-01T11:25:46.341Z,38752
2018-01-01T11:26:56.487Z,35360
2018-01-01T11:28:06.653Z,34912
2018-01-01T11:29:16.809Z,34176
2018-01-01T11:30:27.014Z,30240
2018-01-01T11:31:36.937Z,31488
2018-01-01T11:32:47.090Z,28288
2018-01-01T11:33:57.311Z,18112
2018-01-01T11:35:07.506Z,12532
2018-01-01T11:36:17.445Z,11848
2018-01-01T11:37:27.346Z,11144
2018-01-01T11:38:37.519Z,9932
2018-01-01T11:39:47.678Z,8068
2018-01-01T11:40:57.837Z,7464
2018-01-01T11:42:08.047Z,6960
2018-01-01T11:43:18.231Z,6640
2018-01-01T11:44:28.406Z,6680
2018-01-01T11:45:38.585Z,6764
2018-01-01T11:46:49.724Z,7548
2018-01-01T11:47:59.872Z,8468
2018-01-01T11:49:10.095Z,8500
2018-01-01T11:50:20.021Z,8584
2018-01-01T11:51:30.180Z,8612
2018-01-01T11:52:40.357Z,8440
2018-01-01T11:53:50.287Z,8316
2018-01-01T11:55:00.480Z,8216
2018-01-01T11:56:10.683Z,8204
2018-01-01T11:57:20.866Z,8004
2018-01-01T11:58:31.030Z,7724
2018-01-01T11:59:42.187Z,7956
2018-01-01T12:00:52.103Z,7956
2018-01-01T12:02:02.034Z,7336
2018-01-01T12:03:12.315Z,7732
2018-01-01T12:04:22.204Z,7940
2018-01-01T12:05:32.399Z,8128
2018-01-01T12:06:42.569Z,8440
2018-01-01T12:07:53.445Z,8876
2018-01-01T12:09:03.338Z,9440
2018-01-01T12:10:13.501Z,9496
2018-01-01T12:11:23.643Z,10724
2018-01-01T12:12:33.817Z,11528
2018-01-01T12:13:44.027Z,11636
2018-01-01T12:14:54.320Z,12204
2018-01-01T12:16:04.714Z,10860
2018-01-01T12:20:44.378Z,6792
2018-01-01T12:22:07.279Z,5876
2018-01-01T12:23:18.428Z,5228
2018-01-01T12:24:29.789Z,4144
2018-01-01T12:25:41.026Z,3748
2018-01-01T12:26:51.338Z,3288
2018-01-01T12:28:01.247Z,3404
2018-01-01T12:29:12.436Z,3452
2018-01-01T12:30:22.457Z,3548
2018-01-01T12:31:32.664Z,3496
2018-01-01T12:32:43.011Z,3484
2018-01-01T12:33:53.189Z,3552
2018-01-01T12:35:03.429Z,3632
2018-01-01T12:36:13.028Z,3804
2018-01-01T12:37:23.021Z,3984
2018-01-01T12:38:33.229Z,4180
2018-01-01T12:39:43.410Z,4160
2018-01-01T12:40:53.356Z,4288
2018-01-01T12:42:03.547Z,4548
2018-01-01T12:43:13.728Z,4828
2018-01-01T12:44:23.912Z,5052
2018-01-01T12:45:33.826Z,5680
2018-01-01T12:46:43.769Z,6444
2018-01-01T12:47:53.701Z,6596
2018-01-01T12:49:03.887Z,6616
2018-01-01T12:50:13.883Z,6604
2018-01-01T12:51:24.656Z,6560
2018-01-01T12:52:35.239Z,6448
2018-01-01T12:53:46.607Z,6184
2018-01-01T12:55:02.762Z,5724
2018-01-01T12:56:33.944Z,5300
2018-01-01T12:57:45.793Z,5244
2018-01-01T12:59:03.380Z,5832
2018-01-01T13:00:15.931Z,6312
2018-01-01T13:01:34.921Z,6892
2018-01-01T13:02:48.611Z,7104
2018-01-01T13:04:00.257Z,7632
2018-01-01T13:05:11.028Z,7856
2018-01-01T13:06:23.773Z,7776
2018-01-01T13:07:38.025Z,7020
2018-01-01T13:08:49.628Z,6628
2018-01-01T13:10:01.671Z,6112
2018-01-01T13:11:14.976Z,5788
2018-01-01T13:12:25.954Z,5572
2018-01-01T13:13:38.240Z,7628
2018-01-01T13:14:51.678Z,7520
2018-01-01T13:16:02.647Z,6228
2018-01-01T13:17:19.839Z,5988
2018-01-01T13:18:33.790Z,6392
2018-01-01T13:19:51.140Z,5948
2018-01-01T13:21:09.757Z,4908
2018-01-01T13:22:23.035Z,4824
2018-01-01T13:23:34.112Z,4744
2018-01-01T13:24:46.001Z,4632
2018-01-01T13:26:02.697Z,5556
2018-01-01T13:27:14.154Z,4616
2018-01-01T13:28:25.093Z,4128
2018-01-01T13:29:37.191Z,3936
2018-01-01T13:30:48.696Z,4300
2018-01-01T13:32:00.545Z,5108
2018-01-01T13:33:16.936Z,5252
2018-01-01T13:34:26.810Z,5040
2018-01-01T13:35:38.092Z,5488
2018-01-01T13:36:49.333Z,6348
2018-01-01T13:38:02.984Z,5436
2018-01-01T13:39:13.917Z,6152
2018-01-01T13:40:25.266Z,5296
2018-01-01T13:41:36.074Z,4952
2018-01-01T13:42:47.477Z,4472
2018-01-01T13:43:58.639Z,3964
2018-01-01T13:45:09.151Z,4464
2018-01-01T13:46:20.501Z,4704
2018-01-01T13:47:31.615Z,4608
2018-01-01T13:48:42.349Z,4404
2018-01-01T13:49:53.092Z,3796
2018-01-01T13:51:03.572Z,3712
2018-01-01T13:52:14.109Z,3936
2018-01-01T13:53:24.653Z,3856
2018-01-01T13:54:35.794Z,2836
2018-01-01T13:55:46.995Z,2240
2018-01-01T13:56:57.828Z,2112
2018-01-01T13:58:08.522Z,1768
2018-01-01T13:59:20.980Z,1764
2018-01-01T14:00:33.093Z,1608
2018-01-01T14:01:49.382Z,1380
2018-01-01T14:03:21.109Z,1548
2018-01-01T14:04:33.846Z,1928
2018-01-01T14:05:44.239Z,2452
2018-01-01T14:06:55.697Z,1812
2018-01-01T14:08:05.791Z,1456
2018-01-01T14:09:16.119Z,1380
2018-01-01T14:10:26.457Z,1232
2018-01-01T14:11:36.830Z,1304
2018-01-01T14:12:48.109Z,1120
2018-01-01T14:13:58.916Z,780
2018-01-01T14:15:09.393Z,776
2018-01-01T14:16:19.273Z,836
2018-01-01T14:17:29.706Z,812
2018-01-01T14:18:41.080Z,904
2018-01-01T14:19:52.245Z,812
2018-01-01T14:21:02.747Z,848
2018-01-01T14:22:13.774Z,724
2018-01-01T14:23:24.184Z,620
2018-01-01T14:24:34.477Z,740
2018-01-01T14:25:44.917Z,752
2018-01-01T14:26:55.593Z,640
2018-01-01T14:28:46.078Z,604
2018-01-01T14:29:57.578Z,496
2018-01-01T14:31:08.695Z,428
2018-01-01T14:32:19.242Z,452
2018-01-01T14:33:31.140Z,456
2018-01-01T14:34:42.345Z,448
2018-01-01T14:35:55.715Z,400
2018-01-01T14:37:05.681Z,396
2018-01-01T14:38:15.862Z,400
2018-01-01T14:39:26.037Z,412
2018-01-01T14:40:36.193Z,372
2018-01-01T14:41:46.517Z,312
2018-01-01T14:42:56.534Z,324
2018-01-01T14:44:06.197Z,352
2018-01-01T14:45:16.371Z,404
2018-01-01T14:46:26.566Z,368
2018-01-01T14:47:36.749Z,360
2018-01-01T14:48:46.588Z,404
2018-01-01T14:49:57.749Z,652
2018-01-01T14:51:07.932Z,772
2018-01-01T14:52:17.980Z,788
2018-01-01T14:53:28.278Z,744
2018-01-01T14:54:38.181Z,660
2018-01-01T14:55:48.353Z,532
2018-01-01T14:56:58.530Z,416
2018-01-01T14:58:08.718Z,344
2018-01-01T14:59:18.893Z,300
2018-01-01T15:00:29.064Z,272
2018-01-01T15:01:39.286Z,252
2018-01-01T15:02:49.473Z,276
2018-01-01T15:03:59.434Z,336
2018-01-01T15:05:09.361Z,352
2018-01-01T15:06:19.544Z,324
2018-01-01T15:07:29.798Z,300
2018-01-01T15:08:40.094Z,272
2018-01-01T15:09:50.444Z,276
2018-01-01T15:11:00.327Z,264
2018-01-01T15:12:10.564Z,232
2018-01-01T15:13:20.755Z,200
2018-01-01T15:14:31.010Z,172
2018-01-01T15:15:41.278Z,156
2018-01-01T15:16:51.611Z,140
2018-01-01T15:18:02.004Z,132
2018-01-01T15:19:12.191Z,124
2018-01-01T15:20:22.134Z,116
2018-01-01T15:21:32.480Z,96
2018-01-01T15:22:42.437Z,80
2018-01-01T15:23:52.622Z,64
2018-01-01T15:25:02.851Z,56
2018-01-01T15:26:13.063Z,48
2018-01-01T15:27:23.252Z,44
2018-01-01T15:28:34.560Z,44
2018-01-01T15:29:44.900Z,40
2018-01-01T15:30:54.881Z,36
2018-01-01T15:32:05.119Z,36
2018-01-01T15:33:15.657Z,32
2018-01-01T15:34:25.902Z,28
2018-01-01T15:35:36.197Z,24
2018-01-01T15:36:46.490Z,20
2018-01-01T15:37:56.441Z,20
2018-01-01T15:39:06.728Z,16
2018-01-01T15:40:17.029Z,12
2018-01-01T15:41:28.009Z,8
2018-01-01T15:42:38.258Z,8
2018-01-01T15:43:48.487Z,4
2018-01-01T15:44:58.382Z,4
2018-01-01T15:46:08.043Z,4
2018-01-01T15:47:18.478Z,4
2018-01-01T15:48:28.754Z,4
2018-01-01T15:49:38.969Z,4
2018-01-01T15:50:48.999Z,0
2018-01-01T15:51:59.457Z,4
2018-01-01T15:53:09.496Z,4
2018-01-01T15:54:19.700Z,4
2018-01-01T15:55:29.938Z,0
2018-01-01T15:56:40.602Z,0
2018-01-01T15:57:50.884Z,0
2018-01-01T15:59:01.138Z,0
2018-01-01T16:00:11.367Z,0
2018-01-01T16:01:21.577Z,0
2018-01-01T16:02:31.821Z,0
2018-01-01T16:03:42.537Z,0
2018-01-01T16:04:52.849Z,0
2018-01-01T16:06:03.118Z,0
2018-01-01T16:07:13.345Z,0
2018-01-01T16:08:23.365Z,0
2018-01-01T16:09:33.697Z,0
2018-01-01T16:10:43.953Z,0
2018-01-01T16:11:53.747Z,0
2018-01-01T16:13:03.992Z,0
2018-01-01T16:14:14.243Z,0
2018-01-01T16:15:24.501Z,0
2018-01-01T16:16:34.520Z,0
2018-01-01T16:17:44.734Z,0
2018-01-01T16:18:54.602Z,0
2018-01-01T16:20:04.840Z,0
2018-01-01T16:21:16.041Z,0
2018-01-01T16:22:26.350Z,0
2018-01-01T16:23:36.583Z,0
2018-01-01T16:24:46.956Z,0
2018-01-01T16:25:57.251Z,0
2018-01-01T16:27:07.480Z,0
2018-01-01T16:28:17.751Z,0
2018-01-01T16:29:28.054Z,0
2018-01-01T16:30:38.335Z,0